createdAt,value
2023-01-09T00:01:52.627Z,6.32
2023-01-09T00:06:55.937Z,7.22
2023-01-09T00:11:58.779Z,7.13
2023-01-09T00:17:01.612Z,7.67
2023-01-09T00:22:04.298Z,7.23
2023-01-09T00:27:07.128Z,7.93
2023-01-09T00:32:11.824Z,6.53
2023-01-09T00:37:14.492Z,6.72
2023-01-09T00:42:21.926Z,7.03
2023-01-09T00:47:35.483Z,7.13
2023-01-09T00:52:39.734Z,6.70
2023-01-09T00:57:42.431Z,8.85
2023-01-09T01:02:45.408Z,8.07
2023-01-09T01:07:48.429Z,7.25
2023-01-09T01:12:52.064Z,7.63
2023-01-09T01:17:54.774Z,7.87
2023-01-09T01:22:57.369Z,8.00
2023-01-09T01:27:59.888Z,7.95
2023-01-09T01:33:02.423Z,8.73
2023-01-09T01:38:05.339Z,8.23
2023-01-09T01:43:12.395Z,7.50
2023-01-09T01:48:28.281Z,7.80
2023-01-09T01:53:35.485Z,7.43
2023-01-09T01:59:06.033Z,7.72
2023-01-09T02:04:09.402Z,8.02
2023-01-09T02:09:17.983Z,6.57
2023-01-09T02:14:24.407Z,7.28
2023-01-09T02:20:01.973Z,8.02
2023-01-09T02:25:23.088Z,8.38
2023-01-09T02:30:46.853Z,7.88
2023-01-09T02:36:20.243Z,7.88
2023-01-09T02:41:46.712Z,7.72
2023-01-09T02:47:00.133Z,8.13
2023-01-09T02:52:48.057Z,7.63
2023-01-09T02:58:16.223Z,8.07
2023-01-09T03:03:22.961Z,8.18
2023-01-09T03:08:41.372Z,8.68
2023-01-09T03:13:57.637Z,7.97
2023-01-09T03:19:02.264Z,7.55
2023-01-09T03:29:07.678Z,8.68
2023-01-09T03:34:10.373Z,7.38
2023-01-09T03:39:12.981Z,7.55
2023-01-09T03:44:15.558Z,7.73
2023-01-09T03:49:18.275Z,8.77
2023-01-09T03:54:20.805Z,7.45
2023-01-09T03:59:25.083Z,8.00
2023-01-09T04:04:27.673Z,9.52
2023-01-09T04:09:30.860Z,8.82
2023-01-09T04:14:33.408Z,8.10
2023-01-09T04:19:35.967Z,8.38
2023-01-09T04:24:38.638Z,7.07
2023-01-09T04:29:41.093Z,8.00
2023-01-09T04:34:43.583Z,9.13
2023-01-09T04:39:46.186Z,9.77
2023-01-09T04:44:48.789Z,7.18
2023-01-09T04:49:52.100Z,8.38
2023-01-09T04:54:54.716Z,8.15
2023-01-09T04:59:57.384Z,8.00
2023-01-09T05:05:01.282Z,8.10
2023-01-09T05:10:06.803Z,7.32
2023-01-09T05:15:10.683Z,7.07
2023-01-09T05:20:13.351Z,7.90
2023-01-09T05:25:15.978Z,8.33
2023-01-09T05:30:19.287Z,8.50
2023-01-09T05:35:21.949Z,8.27
2023-01-09T05:40:29.161Z,8.63
2023-01-09T05:45:35.371Z,7.50
2023-01-09T05:50:37.973Z,10.43
2023-01-09T05:55:40.916Z,7.67
2023-01-09T06:00:43.569Z,8.50
2023-01-09T06:05:46.304Z,7.70
2023-01-09T06:10:48.986Z,8.65
2023-01-09T06:15:51.599Z,8.83
2023-01-09T06:20:54.169Z,10.48
2023-01-09T06:25:56.730Z,8.63
2023-01-09T06:30:59.334Z,8.40
2023-01-09T06:36:02.063Z,7.78
2023-01-09T06:41:04.811Z,9.20
2023-01-09T06:46:07.436Z,9.27
2023-01-09T06:51:10.007Z,8.50
2023-01-09T06:56:12.608Z,9.60
2023-01-09T07:01:15.332Z,8.20
2023-01-09T07:06:18.734Z,8.00
2023-01-09T07:11:21.637Z,9.00
2023-01-09T07:16:24.399Z,8.43
2023-01-09T07:21:27.725Z,9.77
2023-01-09T07:26:30.379Z,9.65
2023-01-09T07:31:33.084Z,8.30
2023-01-09T07:36:35.813Z,8.43
2023-01-09T07:41:38.429Z,8.63
2023-01-09T07:46:44.741Z,8.63
2023-01-09T07:51:48.369Z,9.88
2023-01-09T07:56:51.788Z,6.00
2023-01-09T08:01:54.437Z,8.68
2023-01-09T08:06:57.484Z,10.45
2023-01-09T08:12:00.347Z,7.95
2023-01-09T08:17:03.053Z,8.85
2023-01-09T08:22:05.658Z,8.25
2023-01-09T08:27:08.299Z,9.50
2023-01-09T08:32:10.939Z,8.07
2023-01-09T08:37:13.527Z,9.38
2023-01-09T08:42:34.580Z,8.60
2023-01-09T08:47:37.227Z,8.70
2023-01-09T08:52:39.903Z,8.13
2023-01-09T08:57:51.192Z,7.90
2023-01-09T09:03:00.052Z,8.15
2023-01-09T09:08:03.732Z,8.55
2023-01-09T09:13:06.754Z,8.80
2023-01-09T09:18:09.354Z,9.75
2023-01-09T09:23:11.982Z,8.20
2023-01-09T09:28:14.654Z,8.50
2023-01-09T09:33:17.292Z,8.60
2023-01-09T09:38:19.976Z,9.07
2023-01-09T09:44:21.388Z,9.55
2023-01-09T09:49:37.075Z,12.73
2023-01-09T09:54:49.748Z,14.48
2023-01-09T09:59:53.488Z,9.98
2023-01-09T10:05:19.518Z,9.30
2023-01-09T10:10:38.757Z,8.98
2023-01-09T10:16:07.358Z,10.02
2023-01-09T10:21:49.479Z,9.43
2023-01-09T10:26:54.185Z,8.73
2023-01-09T10:32:24.108Z,9.80
2023-01-09T10:37:40.473Z,10.52
2023-01-09T10:42:52.511Z,9.30
2023-01-09T10:48:11.588Z,10.18
2023-01-09T10:53:29.462Z,8.88
2023-01-09T10:58:32.420Z,12.50
2023-01-09T11:03:35.478Z,13.32
2023-01-09T11:08:42.893Z,15.23
2023-01-09T11:13:50.133Z,11.77
2023-01-09T11:18:59.941Z,13.18
2023-01-09T11:24:25.472Z,11.35
2023-01-09T11:29:29.369Z,10.82
2023-01-09T11:34:34.965Z,10.13
2023-01-09T11:39:41.813Z,9.75
2023-01-09T11:44:45.334Z,9.43
2023-01-09T11:49:51.659Z,9.50
2023-01-09T11:55:03.147Z,9.80
2023-01-09T12:00:27.695Z,12.30
2023-01-09T12:06:16.791Z,9.30
2023-01-09T12:11:33.054Z,10.13
2023-01-09T12:16:46.141Z,10.02
2023-01-09T12:22:44.924Z,11.73
2023-01-09T12:28:34.974Z,10.40
2023-01-09T12:33:48.729Z,10.40
2023-01-09T12:39:06.225Z,10.55
2023-01-09T12:44:53.195Z,9.73
2023-01-09T12:50:39.075Z,9.70
2023-01-09T12:56:15.151Z,9.45
2023-01-09T13:01:33.916Z,11.35
2023-01-09T13:06:41.990Z,9.50
2023-01-09T13:12:02.545Z,10.35
2023-01-09T13:17:11.609Z,11.88
2023-01-09T13:22:15.905Z,10.02
2023-01-09T13:27:23.144Z,11.00
2023-01-09T13:32:57.793Z,10.48
2023-01-09T13:38:00.540Z,10.30
2023-01-09T13:43:06.680Z,12.43
2023-01-09T13:48:17.963Z,11.50
2023-01-09T13:53:20.486Z,10.70
2023-01-09T13:58:50.166Z,13.57
2023-01-09T14:04:37.076Z,11.80
2023-01-09T14:09:49.613Z,12.77
2023-01-09T14:14:55.110Z,16.83
2023-01-09T14:20:01.399Z,13.90
2023-01-09T14:25:16.573Z,13.80
2023-01-09T14:30:31.321Z,14.27
2023-01-09T14:35:46.641Z,14.38
2023-01-09T14:41:14.969Z,14.18
2023-01-09T14:46:20.187Z,11.85
2023-01-09T14:51:24.208Z,12.52
2023-01-09T14:56:31.216Z,11.93
2023-01-09T15:01:35.801Z,12.15
2023-01-09T15:11:46.939Z,12.48
2023-01-09T15:16:49.714Z,13.02
2023-01-09T15:22:02.980Z,11.48
2023-01-09T15:27:34.360Z,12.07
2023-01-09T15:32:39.950Z,12.65
2023-01-09T15:37:44.363Z,11.48
2023-01-09T15:48:32.991Z,11.48
2023-01-09T15:53:36.156Z,12.68
2023-01-09T15:58:54.773Z,11.07
2023-01-09T16:04:05.107Z,12.02
2023-01-09T16:09:18.277Z,11.82
2023-01-09T16:14:41.119Z,12.85
2023-01-09T16:19:58.011Z,11.13
2023-01-09T16:25:21.864Z,11.70
2023-01-09T16:30:27.618Z,11.45
2023-01-09T16:35:30.490Z,13.85
2023-01-09T16:40:36.248Z,12.25
2023-01-09T16:45:41.582Z,10.75
2023-01-09T16:50:44.845Z,12.10
2023-01-09T16:55:47.789Z,10.77
2023-01-09T17:00:50.622Z,10.65
2023-01-09T17:05:56.973Z,11.10
2023-01-09T17:11:00.057Z,11.15
2023-01-09T17:16:02.670Z,10.80
2023-01-09T17:21:05.464Z,9.43
2023-01-09T17:26:36.775Z,11.05
2023-01-09T17:31:39.397Z,11.05
2023-01-09T17:36:43.436Z,10.40
2023-01-09T17:41:46.037Z,10.18
2023-01-09T17:46:48.669Z,10.77
2023-01-09T17:51:51.350Z,10.52
2023-01-09T17:56:54.421Z,10.77
2023-01-09T18:01:57.239Z,10.10
2023-01-09T18:06:59.811Z,11.70
2023-01-09T18:12:02.734Z,9.20
2023-01-09T18:17:06.378Z,10.02
2023-01-09T18:22:09.312Z,11.17
2023-01-09T18:27:11.919Z,9.88
2023-01-09T18:32:14.507Z,10.52
2023-01-09T18:37:17.302Z,9.73
2023-01-09T18:42:19.951Z,9.75
2023-01-09T18:47:22.625Z,9.23
2023-01-09T18:52:25.240Z,11.50
2023-01-09T18:57:27.798Z,10.52
2023-01-09T19:02:30.390Z,10.40
2023-01-09T19:07:33.280Z,9.07
2023-01-09T19:12:35.942Z,8.32
2023-01-09T19:17:39.806Z,11.15
2023-01-09T19:22:42.336Z,9.70
2023-01-09T19:27:45.402Z,9.88
2023-01-09T19:32:48.393Z,8.80
2023-01-09T19:37:51.037Z,9.57
2023-01-09T19:42:55.352Z,9.00
2023-01-09T19:47:58.256Z,10.32
2023-01-09T19:53:00.961Z,9.23
2023-01-09T19:58:03.596Z,11.27
2023-01-09T20:03:06.343Z,11.68
2023-01-09T20:08:09.765Z,10.02
2023-01-09T20:13:13.857Z,9.70
2023-01-09T20:18:17.983Z,10.40
2023-01-09T20:28:26.259Z,8.45
2023-01-09T20:33:29.032Z,10.25
2023-01-09T20:38:33.340Z,10.15
2023-01-09T20:43:36.279Z,9.80
2023-01-09T20:48:38.961Z,8.70
2023-01-09T20:53:46.898Z,10.50
2023-01-09T20:58:50.192Z,9.65
2023-01-09T21:03:55.208Z,9.60
2023-01-09T21:08:57.891Z,10.65
2023-01-09T21:14:00.638Z,9.52
2023-01-09T21:19:03.229Z,9.63
2023-01-09T21:24:08.121Z,9.93
2023-01-09T21:29:13.673Z,10.13
2023-01-09T21:34:20.108Z,9.32
2023-01-09T21:39:22.929Z,10.85
2023-01-09T21:44:44.306Z,8.38
2023-01-09T21:49:47.143Z,9.23
2023-01-09T21:54:50.720Z,10.38
2023-01-09T21:59:53.365Z,9.65
2023-01-09T22:05:00.217Z,9.80
2023-01-09T22:10:03.257Z,9.93
2023-01-09T22:15:07.151Z,10.75
2023-01-09T22:20:11.951Z,8.43
2023-01-09T22:25:17.389Z,10.02
2023-01-09T22:30:21.451Z,10.13
2023-01-09T22:35:24.459Z,10.13
2023-01-09T22:40:27.375Z,9.43
2023-01-09T22:45:30.888Z,10.30
2023-01-09T22:50:33.499Z,10.25
2023-01-09T22:55:36.061Z,9.95
2023-01-09T23:00:38.594Z,10.82
2023-01-09T23:05:41.183Z,11.10
2023-01-09T23:10:44.652Z,10.75
2023-01-09T23:15:47.243Z,11.68
2023-01-09T23:20:54.682Z,9.68
2023-01-09T23:26:05.009Z,8.82
2023-01-09T23:31:07.532Z,9.98
2023-01-09T23:36:10.293Z,9.70
2023-01-09T23:41:12.917Z,10.57
2023-01-09T23:46:15.500Z,10.07
2023-01-09T23:51:18.085Z,10.02
2023-01-09T23:56:20.662Z,8.98
